createdAt,value
2023-08-11T00:07:57.132Z,1015.64
2023-08-11T00:17:57.728Z,1015.67
2023-08-11T00:27:58.271Z,1015.68
2023-08-11T00:37:58.800Z,1015.67
2023-08-11T00:47:59.396Z,1015.71
2023-08-11T00:57:59.913Z,1015.81
2023-08-11T01:08:00.491Z,1015.86
2023-08-11T01:18:01.044Z,1015.88
2023-08-11T01:28:01.620Z,1015.83
2023-08-11T01:38:02.139Z,1015.79
2023-08-11T01:48:02.921Z,1015.75
2023-08-11T01:58:03.099Z,1015.75
2023-08-11T02:08:03.671Z,1015.79
2023-08-11T02:18:04.220Z,1015.83
2023-08-11T02:28:04.751Z,1015.74
2023-08-11T02:38:05.300Z,1015.73
2023-08-11T02:48:05.893Z,1015.75
2023-08-11T02:58:06.396Z,1015.74
2023-08-11T03:08:06.959Z,1015.75
2023-08-11T03:18:07.478Z,1015.68
2023-08-11T03:28:08.056Z,1015.61
2023-08-11T03:38:08.535Z,1015.58
2023-08-11T03:48:09.080Z,1015.53
2023-08-11T03:58:16.536Z,1015.63
2023-08-11T04:08:10.035Z,1015.63
2023-08-11T04:18:10.530Z,1015.63
2023-08-11T04:28:11.054Z,1015.68
2023-08-11T04:38:11.544Z,1015.67
2023-08-11T04:48:12.107Z,1015.72
2023-08-11T04:58:12.578Z,1015.80
2023-08-11T05:08:13.126Z,1015.88
2023-08-11T05:18:13.595Z,1015.95
2023-08-11T05:28:14.105Z,1016.00
2023-08-11T05:38:14.583Z,1016.06
2023-08-11T05:48:15.109Z,1016.04
2023-08-11T05:58:15.582Z,1016.11
2023-08-11T06:08:16.106Z,1016.07
2023-08-11T06:18:16.585Z,1016.11
2023-08-11T06:28:17.128Z,1016.20
2023-08-11T06:38:17.584Z,1016.10
2023-08-11T06:48:18.101Z,1016.26
2023-08-11T06:58:18.573Z,1016.41
2023-08-11T07:08:19.083Z,1016.54
2023-08-11T07:18:19.567Z,1016.56
2023-08-11T07:28:20.251Z,1016.55
2023-08-11T07:38:20.727Z,1016.58
2023-08-11T07:48:21.230Z,1016.63
2023-08-11T07:58:21.692Z,1016.60
2023-08-11T08:08:22.206Z,1016.67
2023-08-11T08:18:22.684Z,1016.56
2023-08-11T08:28:23.198Z,1016.50
2023-08-11T08:38:23.686Z,1016.60
2023-08-11T08:48:24.214Z,1016.61
2023-08-11T08:58:24.715Z,1016.61
2023-08-11T09:08:25.261Z,1016.58
2023-08-11T09:18:25.730Z,1016.60
2023-08-11T09:28:26.230Z,1016.66
2023-08-11T09:38:26.715Z,1016.70
2023-08-11T09:48:27.261Z,1016.74
2023-08-11T09:58:27.721Z,1016.79
2023-08-11T10:08:35.242Z,1016.80
2023-08-11T10:18:28.707Z,1016.72
2023-08-11T10:28:29.267Z,1016.68
2023-08-11T10:38:29.694Z,1016.67
2023-08-11T10:48:30.212Z,1016.52
2023-08-11T10:58:30.696Z,1016.56
2023-08-11T11:08:31.217Z,1016.58
2023-08-11T11:18:31.700Z,1016.53
2023-08-11T11:28:32.210Z,1016.41
2023-08-11T11:38:32.681Z,1016.41
2023-08-11T11:48:33.203Z,1016.33
2023-08-11T11:58:33.673Z,1016.29
2023-08-11T12:08:34.187Z,1016.33
2023-08-11T12:18:34.650Z,1016.27
2023-08-11T12:28:35.164Z,1016.32
2023-08-11T12:38:35.646Z,1016.32
2023-08-11T12:48:36.190Z,1016.39
2023-08-11T12:58:36.672Z,1016.38
2023-08-11T13:08:37.185Z,1016.32
2023-08-11T13:18:37.661Z,1016.39
2023-08-11T13:28:38.191Z,1016.27
2023-08-11T13:38:38.657Z,1016.24
2023-08-11T13:48:39.201Z,1016.19
2023-08-11T13:58:39.632Z,1016.18
2023-08-11T14:08:40.161Z,1016.06
2023-08-11T14:18:40.656Z,1016.03
2023-08-11T14:28:41.150Z,1016.00
2023-08-11T14:38:41.625Z,1016.01
2023-08-11T14:48:42.139Z,1016.05
2023-08-11T14:58:42.623Z,1015.96
2023-08-11T15:08:43.159Z,1015.95
2023-08-11T15:18:43.663Z,1015.93
2023-08-11T15:28:44.170Z,1015.87
2023-08-11T15:38:44.640Z,1015.78
2023-08-11T15:48:45.152Z,1015.67
2023-08-11T15:58:45.638Z,1015.61
2023-08-11T16:08:53.177Z,1015.53
2023-08-11T16:18:46.658Z,1015.38
2023-08-11T16:28:47.166Z,1015.46
2023-08-11T16:38:47.670Z,1015.45
2023-08-11T16:48:48.161Z,1015.39
2023-08-11T16:58:48.645Z,1015.30
2023-08-11T17:08:49.156Z,1015.26
2023-08-11T17:18:50.937Z,1015.37
2023-08-11T17:28:50.227Z,1015.29
2023-08-11T17:38:50.722Z,1015.22
2023-08-11T17:48:51.239Z,1015.14
2023-08-11T17:58:51.720Z,1015.16
2023-08-11T18:08:52.238Z,1015.12
2023-08-11T18:18:52.714Z,1015.07
2023-08-11T18:28:53.325Z,1015.04
2023-08-11T18:38:53.804Z,1015.15
2023-08-11T18:48:54.347Z,1015.25
2023-08-11T18:58:54.826Z,1015.39
2023-08-11T19:08:55.355Z,1015.36
2023-08-11T19:18:55.913Z,1015.28
2023-08-11T19:28:56.505Z,1015.19
2023-08-11T19:38:57.039Z,1015.13
2023-08-11T19:48:57.617Z,1015.22
2023-08-11T19:58:58.180Z,1015.24
2023-08-11T20:08:58.729Z,1015.13
2023-08-11T20:18:59.277Z,1015.02
2023-08-11T20:28:59.887Z,1015.04
2023-08-11T20:39:00.407Z,1015.16
2023-08-11T20:49:00.982Z,1015.19
2023-08-11T20:59:01.502Z,1015.16
2023-08-11T21:09:02.077Z,1015.03
2023-08-11T21:19:02.614Z,1014.93
2023-08-11T21:29:03.227Z,1014.92
2023-08-11T21:39:03.763Z,1014.96
2023-08-11T21:49:04.352Z,1014.91
2023-08-11T21:59:04.883Z,1014.90
2023-08-11T22:09:05.520Z,1014.90
2023-08-11T22:19:06.060Z,1014.86
2023-08-11T22:29:06.733Z,1014.73
2023-08-11T22:39:07.241Z,1014.76
2023-08-11T22:49:07.871Z,1014.59
2023-08-11T22:59:08.379Z,1014.47
2023-08-11T23:09:08.940Z,1014.51
2023-08-11T23:19:09.471Z,1014.51
2023-08-11T23:29:10.057Z,1014.55
2023-08-11T23:39:10.596Z,1014.50
2023-08-11T23:49:11.155Z,1014.52
2023-08-11T23:59:11.675Z,1014.50
